Neva — MCNR — position and weather

sailwx.info

Track history (hours):
 
Tides and Currents Weather Stations Pressure Air Temp Water Temp Dewpoint Dewpoint Depression Visibility Wind Speed Wind Dir Waves Ship Positions

Neva

Last reported at 2017-Sep-18 22:43 UTC. Time now 2017-Sep-21 03:37 UTC.
Position N 22°28' E 113°52'.

Length 172 m; draft 7.4 m.

Type: Cargo ship. MMSI: 235012099.

Date/timePositionNaut miles runAvg speedWind from/ knotsBaromVisibWave heightAir tempDewpointWater temp
2017-Sep-18 22:43N 22°28' E 113°52'0 0.0
2017-Sep-18 18:13N 22°28' E 113°52'0 0.0
2017-Sep-18 09:29N 22°28' E 113°52'3 5.5
2017-Sep-18 08:55N 22°25' E 113°53'2 5.0
2017-Sep-18 08:30N 22°23' E 113°54'325 9.9
2017-Sep-16 23:38N 22°31' E 119°45'217.2
2017-Sep-16 23:30N 22°31' E 119°48'917.1
2017-Sep-16 23:00N 22°32' E 119°57'917.2
2017-Sep-16 22:31N 22°33' E 120°06'816.9
2017-Sep-16 22:00N 22°33' E 120°15'4 7.5
2017-Sep-16 21:30N 22°33' E 120°19'0 0.4
2017-Sep-16 21:00N 22°33' E 120°19'0 0.0
2017-Sep-16 20:30N 22°33' E 120°19'0 0.0
2017-Sep-16 20:00N 22°33' E 120°19'0 0.0
2017-Sep-16 19:28N 22°33' E 120°19'0 0.0
2017-Sep-16 18:46N 22°33' E 120°19'0 0.0
2017-Sep-16 17:55N 22°33' E 120°19'0 0.0
2017-Sep-16 16:13N 22°33' E 120°19'0 0.0
2017-Sep-16 15:58N 22°33' E 120°19'0 0.0
2017-Sep-16 14:01N 22°33' E 120°19'0 0.4
2017-Sep-16 14:00N 22°33' E 120°19'3 5.1
2017-Sep-16 13:30N 22°33' E 120°17'2 3.6
2017-Sep-16 13:00N 22°32' E 120°15'2 4.2
2017-Sep-16 12:30N 22°32' E 120°13'612.1
2017-Sep-16 12:00N 22°38' E 120°09'917.8
2017-Sep-16 11:31N 22°46' E 120°06'3016.5
2017-Sep-16 09:41N 23°15' E 119°56'315.7
2017-Sep-16 09:30N 23°17' E 119°56'815.5
2017-Sep-16 09:00N 23°25' E 119°56'1515.2
2017-Sep-16 08:00N 23°41' E 119°55'815.2
2017-Sep-16 07:28N 23°48' E 119°58'  
2017-Sep-10 23:05N 34°52' E 139°23'216.3
2017-Sep-10 22:59N 34°53' E 139°24'816.2
2017-Sep-10 22:31N 34°58' E 139°32'816.5
2017-Sep-10 22:00N 35°03' E 139°40'816.3
2017-Sep-10 21:30N 35°10' E 139°45'612.0
2017-Sep-10 21:00N 35°16' E 139°46'612.8
2017-Sep-10 20:30N 35°21' E 139°42'713.6
2017-Sep-10 20:01N 35°27' E 139°47'713.5
2017-Sep-10 19:30N 35°33' E 139°50'4 8.5
2017-Sep-10 19:01N 35°36' E 139°47'0 0.4
2017-Sep-10 18:30N 35°36' E 139°47'0 0.0
2017-Sep-10 18:00N 35°36' E 139°47'0 0.0
2017-Sep-10 17:30N 35°36' E 139°47'0 0.0
2017-Sep-10 17:00N 35°36' E 139°47'0 0.0
2017-Sep-10 16:30N 35°36' E 139°47'0 0.0
2017-Sep-10 16:00N 35°36' E 139°47'0 0.0
2017-Sep-10 15:29N 35°36' E 139°47'0 0.0
2017-Sep-10 14:59N 35°36' E 139°47'0 0.0
2017-Sep-10 13:56N 35°36' E 139°47'0 0.0
2017-Sep-10 13:29N 35°36' E 139°47'0 0.0
2017-Sep-10 12:59N 35°36' E 139°47'0 0.0
2017-Sep-10 12:29N 35°36' E 139°47'0 0.0
2017-Sep-10 11:59N 35°36' E 139°47'0 0.0
2017-Sep-10 11:29N 35°36' E 139°47'0 0.0
2017-Sep-10 10:59N 35°36' E 139°47'0 0.8
2017-Sep-10 10:30N 35°36' E 139°47'5 9.3
2017-Sep-10 10:00N 35°33' E 139°52'1 1.3
2017-Sep-10 09:29N 35°34' E 139°52'1 1.9
2017-Sep-10 09:00N 35°33' E 139°52'4 8.3
2017-Sep-10 08:30N 35°29' E 139°51'611.3
2017-Sep-10 08:00N 35°25' E 139°46'5 9.2
2017-Sep-10 07:30N 35°24' E 139°41'0 0.9
2017-Sep-10 07:00N 35°24' E 139°41'0 0.0
2017-Sep-10 06:29N 35°24' E 139°41'0 0.0
2017-Sep-10 05:59N 35°24' E 139°41'0 0.0
2017-Sep-10 05:29N 35°24' E 139°41'0 0.0
2017-Sep-10 04:59N 35°24' E 139°41'0 0.0
2017-Sep-10 04:29N 35°24' E 139°41'0 0.0
2017-Sep-10 03:59N 35°24' E 139°41'0 0.0
2017-Sep-10 03:29N 35°24' E 139°41'0 0.0
2017-Sep-10 02:59N 35°24' E 139°41'0 0.1
2017-Sep-10 02:29N 35°24' E 139°41'0 0.1
2017-Sep-10 01:59N 35°24' E 139°41'0 0.0
2017-Sep-10 01:29N 35°24' E 139°41'0 0.0
2017-Sep-10 00:59N 35°24' E 139°41'0 0.0
2017-Sep-10 00:29N 35°24' E 139°41'0 0.0
2017-Sep-09 23:59N 35°24' E 139°41'0 0.0
2017-Sep-09 23:29N 35°24' E 139°41'0 0.0
2017-Sep-09 22:59N 35°24' E 139°41'0 0.1
2017-Sep-09 22:31N 35°24' E 139°41'1 2.9
2017-Sep-09 22:00N 35°23' E 139°41'511.0
2017-Sep-09 21:30N 35°18' E 139°45'611.9
2017-Sep-09 21:00N 35°12' E 139°47'4 8.9
2017-Sep-09 20:30N 35°08' E 139°46'3 6.5
2017-Sep-09 20:00N 35°05' E 139°45'510.7
2017-Sep-09 19:31N 34°60' E 139°42'611.9
2017-Sep-09 19:00N 34°56' E 139°37'1 1.7
2017-Sep-09 18:31N 34°55' E 139°36'1 1.1
2017-Sep-09 18:00N 34°54' E 139°36'0 0.7
2017-Sep-09 17:30N 34°55' E 139°37'1 1.3
2017-Sep-09 17:00N 34°55' E 139°37'4 8.3
2017-Sep-09 16:30N 34°55' E 139°32'1019.1
2017-Sep-09 15:59N 34°50' E 139°21'  
Track history (hours):
 
Tides and Currents Weather Stations Pressure Air Temp Water Temp Dewpoint Dewpoint Depression Visibility Wind Speed Wind Dir Waves Ship Positions

Neva

Last reported at 2017-Sep-18 22:43 UTC. Time now 2017-Sep-21 03:37 UTC.
Position N 22°28' E 113°52'.

Length 172 m; draft 7.4 m.

Type: Cargo ship. MMSI: 235012099.

Date/timePositionNaut miles runAvg speedWind from/ knotsBaromVisibWave heightAir tempDewpointWater temp
2017-Sep-18 22:43N 22°28' E 113°52'0 0.0
2017-Sep-18 18:13N 22°28' E 113°52'0 0.0
2017-Sep-18 09:29N 22°28' E 113°52'3 5.5
2017-Sep-18 08:55N 22°25' E 113°53'2 5.0
2017-Sep-18 08:30N 22°23' E 113°54'325 9.9
2017-Sep-16 23:38N 22°31' E 119°45'217.2
2017-Sep-16 23:30N 22°31' E 119°48'917.1
2017-Sep-16 23:00N 22°32' E 119°57'917.2
2017-Sep-16 22:31N 22°33' E 120°06'816.9
2017-Sep-16 22:00N 22°33' E 120°15'4 7.5
2017-Sep-16 21:30N 22°33' E 120°19'0 0.4
2017-Sep-16 21:00N 22°33' E 120°19'0 0.0
2017-Sep-16 20:30N 22°33' E 120°19'0 0.0
2017-Sep-16 20:00N 22°33' E 120°19'0 0.0
2017-Sep-16 19:28N 22°33' E 120°19'0 0.0
2017-Sep-16 18:46N 22°33' E 120°19'0 0.0
2017-Sep-16 17:55N 22°33' E 120°19'0 0.0
2017-Sep-16 16:13N 22°33' E 120°19'0 0.0
2017-Sep-16 15:58N 22°33' E 120°19'0 0.0
2017-Sep-16 14:01N 22°33' E 120°19'0 0.4
2017-Sep-16 14:00N 22°33' E 120°19'3 5.1
2017-Sep-16 13:30N 22°33' E 120°17'2 3.6
2017-Sep-16 13:00N 22°32' E 120°15'2 4.2
2017-Sep-16 12:30N 22°32' E 120°13'612.1
2017-Sep-16 12:00N 22°38' E 120°09'917.8
2017-Sep-16 11:31N 22°46' E 120°06'3016.5
2017-Sep-16 09:41N 23°15' E 119°56'315.7
2017-Sep-16 09:30N 23°17' E 119°56'815.5
2017-Sep-16 09:00N 23°25' E 119°56'1515.2
2017-Sep-16 08:00N 23°41' E 119°55'815.2
2017-Sep-16 07:28N 23°48' E 119°58'  
2017-Sep-10 23:05N 34°52' E 139°23'216.3
2017-Sep-10 22:59N 34°53' E 139°24'816.2
2017-Sep-10 22:31N 34°58' E 139°32'816.5
2017-Sep-10 22:00N 35°03' E 139°40'816.3
2017-Sep-10 21:30N 35°10' E 139°45'612.0
2017-Sep-10 21:00N 35°16' E 139°46'612.8
2017-Sep-10 20:30N 35°21' E 139°42'713.6
2017-Sep-10 20:01N 35°27' E 139°47'713.5
2017-Sep-10 19:30N 35°33' E 139°50'4 8.5
2017-Sep-10 19:01N 35°36' E 139°47'0 0.4
2017-Sep-10 18:30N 35°36' E 139°47'0 0.0
2017-Sep-10 18:00N 35°36' E 139°47'0 0.0
2017-Sep-10 17:30N 35°36' E 139°47'0 0.0
2017-Sep-10 17:00N 35°36' E 139°47'0 0.0
2017-Sep-10 16:30N 35°36' E 139°47'0 0.0
2017-Sep-10 16:00N 35°36' E 139°47'0 0.0
2017-Sep-10 15:29N 35°36' E 139°47'0 0.0
2017-Sep-10 14:59N 35°36' E 139°47'0 0.0
2017-Sep-10 13:56N 35°36' E 139°47'0 0.0
2017-Sep-10 13:29N 35°36' E 139°47'0 0.0
2017-Sep-10 12:59N 35°36' E 139°47'0 0.0
2017-Sep-10 12:29N 35°36' E 139°47'0 0.0
2017-Sep-10 11:59N 35°36' E 139°47'0 0.0
2017-Sep-10 11:29N 35°36' E 139°47'0 0.0
2017-Sep-10 10:59N 35°36' E 139°47'0 0.8
2017-Sep-10 10:30N 35°36' E 139°47'5 9.3
2017-Sep-10 10:00N 35°33' E 139°52'1 1.3
2017-Sep-10 09:29N 35°34' E 139°52'1 1.9
2017-Sep-10 09:00N 35°33' E 139°52'4 8.3
2017-Sep-10 08:30N 35°29' E 139°51'611.3
2017-Sep-10 08:00N 35°25' E 139°46'5 9.2
2017-Sep-10 07:30N 35°24' E 139°41'0 0.9
2017-Sep-10 07:00N 35°24' E 139°41'0 0.0
2017-Sep-10 06:29N 35°24' E 139°41'0 0.0
2017-Sep-10 05:59N 35°24' E 139°41'0 0.0
2017-Sep-10 05:29N 35°24' E 139°41'0 0.0
2017-Sep-10 04:59N 35°24' E 139°41'0 0.0
2017-Sep-10 04:29N 35°24' E 139°41'0 0.0
2017-Sep-10 03:59N 35°24' E 139°41'0 0.0
2017-Sep-10 03:29N 35°24' E 139°41'0 0.0
2017-Sep-10 02:59N 35°24' E 139°41'0 0.1
2017-Sep-10 02:29N 35°24' E 139°41'0 0.1
2017-Sep-10 01:59N 35°24' E 139°41'0 0.0
2017-Sep-10 01:29N 35°24' E 139°41'0 0.0
2017-Sep-10 00:59N 35°24' E 139°41'0 0.0
2017-Sep-10 00:29N 35°24' E 139°41'0 0.0
2017-Sep-09 23:59N 35°24' E 139°41'0 0.0
2017-Sep-09 23:29N 35°24' E 139°41'0 0.0
2017-Sep-09 22:59N 35°24' E 139°41'0 0.1
2017-Sep-09 22:31N 35°24' E 139°41'1 2.9
2017-Sep-09 22:00N 35°23' E 139°41'511.0
2017-Sep-09 21:30N 35°18' E 139°45'611.9
2017-Sep-09 21:00N 35°12' E 139°47'4 8.9
2017-Sep-09 20:30N 35°08' E 139°46'3 6.5
2017-Sep-09 20:00N 35°05' E 139°45'510.7
2017-Sep-09 19:31N 34°60' E 139°42'611.9
2017-Sep-09 19:00N 34°56' E 139°37'1 1.7
2017-Sep-09 18:31N 34°55' E 139°36'1 1.1
2017-Sep-09 18:00N 34°54' E 139°36'0 0.7
2017-Sep-09 17:30N 34°55' E 139°37'1 1.3
2017-Sep-09 17:00N 34°55' E 139°37'4 8.3
2017-Sep-09 16:30N 34°55' E 139°32'1019.1
2017-Sep-09 15:59N 34°50' E 139°21'  

Dump ship's entire track history